createdAt,value
2022-09-30T00:02:07.897Z,13.76
2022-09-30T00:04:35.493Z,14.06
2022-09-30T00:07:03.031Z,12.93
2022-09-30T00:09:30.979Z,12.82
2022-09-30T00:12:00.757Z,12.81
2022-09-30T00:14:28.319Z,12.87
2022-09-30T00:16:57.836Z,12.91
2022-09-30T00:19:25.706Z,13.57
2022-09-30T00:21:53.371Z,13.20
2022-09-30T00:24:21.249Z,13.43
2022-09-30T00:26:56.412Z,13.77
2022-09-30T00:29:25.581Z,13.21
2022-09-30T00:31:53.505Z,11.67
2022-09-30T00:34:26.280Z,12.21
2022-09-30T00:36:55.556Z,13.65
2022-09-30T00:39:23.904Z,13.43
2022-09-30T00:41:54.996Z,13.95
2022-09-30T00:44:41.585Z,13.92
2022-09-30T00:47:15.584Z,13.54
2022-09-30T00:49:43.262Z,13.53
2022-09-30T00:52:10.847Z,13.43
2022-09-30T00:54:38.748Z,13.57
2022-09-30T00:57:06.847Z,13.86
2022-09-30T00:59:38.158Z,13.51
2022-09-30T01:02:07.401Z,13.31
2022-09-30T01:04:36.402Z,13.27
2022-09-30T01:07:04.649Z,13.33
2022-09-30T01:09:32.993Z,13.50
2022-09-30T01:12:01.008Z,13.29
2022-09-30T01:14:28.614Z,13.27
2022-09-30T01:16:58.906Z,13.32
2022-09-30T01:19:37.122Z,13.35
2022-09-30T01:22:11.224Z,13.54
2022-09-30T01:24:42.197Z,13.15
2022-09-30T01:27:18.560Z,13.69
2022-09-30T01:30:16.847Z,13.97
2022-09-30T01:33:02.170Z,14.03
2022-09-30T01:35:38.267Z,14.17
2022-09-30T01:38:09.148Z,13.83
2022-09-30T01:40:39.928Z,13.36
2022-09-30T01:43:08.526Z,13.21
2022-09-30T01:45:37.968Z,13.03
2022-09-30T01:48:07.369Z,13.20
2022-09-30T01:50:39.366Z,13.32
2022-09-30T01:53:07.755Z,13.74
2022-09-30T01:55:38.437Z,13.92
2022-09-30T01:58:06.817Z,13.64
2022-09-30T02:00:35.065Z,13.33
2022-09-30T02:03:04.523Z,13.83
2022-09-30T02:05:33.457Z,13.78
2022-09-30T02:08:04.564Z,13.55
2022-09-30T02:10:33.022Z,13.14
2022-09-30T02:13:05.554Z,13.18
2022-09-30T02:15:40.227Z,13.39
2022-09-30T02:18:09.962Z,13.31
2022-09-30T02:20:38.164Z,13.22
2022-09-30T02:23:07.998Z,12.70
2022-09-30T02:25:37.080Z,13.09
2022-09-30T02:28:07.959Z,13.00
2022-09-30T02:30:36.345Z,12.95
2022-09-30T02:33:04.322Z,13.18
2022-09-30T02:35:34.372Z,12.95
2022-09-30T02:38:03.598Z,13.00
2022-09-30T02:40:36.546Z,13.44
2022-09-30T02:43:04.263Z,13.31
2022-09-30T02:45:32.914Z,13.66
2022-09-30T02:48:04.322Z,13.46
2022-09-30T02:50:32.675Z,13.27
2022-09-30T02:53:02.269Z,13.13
2022-09-30T02:55:31.998Z,13.23
2022-09-30T02:58:02.210Z,13.27
2022-09-30T03:00:32.444Z,13.17
2022-09-30T03:03:02.411Z,13.23
2022-09-30T03:05:32.396Z,13.18
2022-09-30T03:08:02.416Z,13.24
2022-09-30T03:10:32.441Z,13.20
2022-09-30T03:13:05.604Z,12.93
2022-09-30T03:15:39.669Z,12.89
2022-09-30T03:18:13.033Z,12.65
2022-09-30T03:20:44.423Z,12.85
2022-09-30T03:23:19.990Z,13.42
2022-09-30T03:25:48.863Z,13.27
2022-09-30T03:28:19.954Z,13.45
2022-09-30T03:30:48.809Z,13.56
2022-09-30T03:33:17.816Z,13.56
2022-09-30T03:35:48.468Z,13.47
2022-09-30T03:38:16.802Z,13.13
2022-09-30T03:40:45.157Z,13.25
2022-09-30T03:43:13.902Z,13.25
2022-09-30T03:45:47.686Z,13.46
2022-09-30T03:48:15.411Z,13.53
2022-09-30T03:50:43.060Z,12.98
2022-09-30T03:53:12.541Z,13.42
2022-09-30T03:55:47.874Z,13.33
2022-09-30T03:58:16.029Z,13.32
2022-09-30T04:00:47.481Z,13.43
2022-09-30T04:03:15.241Z,13.57
2022-09-30T04:05:42.890Z,13.70
2022-09-30T04:08:10.761Z,13.81
2022-09-30T04:10:45.230Z,13.82
2022-09-30T04:13:13.451Z,13.85
2022-09-30T04:15:41.685Z,13.33
2022-09-30T04:18:10.670Z,13.34
2022-09-30T04:20:39.553Z,13.17
2022-09-30T04:23:08.051Z,13.38
2022-09-30T04:25:35.705Z,13.71
2022-09-30T04:28:04.283Z,13.30
2022-09-30T04:30:34.541Z,13.24
2022-09-30T04:33:07.989Z,13.67
2022-09-30T04:35:40.045Z,13.28
2022-09-30T04:38:07.592Z,13.51
2022-09-30T04:40:38.397Z,13.31
2022-09-30T04:43:08.521Z,13.61
2022-09-30T04:45:36.709Z,13.44
2022-09-30T04:48:04.493Z,13.32
2022-09-30T04:50:32.119Z,13.59
2022-09-30T04:53:04.846Z,13.74
2022-09-30T04:55:32.826Z,13.69
2022-09-30T04:58:00.811Z,13.31
2022-09-30T05:00:31.088Z,13.25
2022-09-30T05:03:06.372Z,13.44
2022-09-30T05:05:34.959Z,13.44
2022-09-30T05:08:04.976Z,13.20
2022-09-30T05:10:36.653Z,12.93
2022-09-30T05:13:04.296Z,13.20
2022-09-30T05:15:32.142Z,13.42
2022-09-30T05:17:59.722Z,13.08
2022-09-30T05:20:27.379Z,13.32
2022-09-30T05:22:58.876Z,13.49
2022-09-30T05:25:28.236Z,13.53
2022-09-30T05:27:58.507Z,12.69
2022-09-30T05:30:26.977Z,13.13
2022-09-30T05:32:57.407Z,13.60
2022-09-30T05:35:26.634Z,13.66
2022-09-30T05:37:54.806Z,13.63
2022-09-30T05:40:22.671Z,13.66
2022-09-30T05:42:52.498Z,13.69
2022-09-30T05:45:20.104Z,13.74
2022-09-30T05:47:52.144Z,13.30
2022-09-30T05:50:23.977Z,13.57
2022-09-30T05:52:52.932Z,13.54
2022-09-30T05:55:23.080Z,13.57
2022-09-30T05:57:52.857Z,13.60
2022-09-30T06:00:20.742Z,13.49
2022-09-30T06:02:57.007Z,13.76
2022-09-30T06:05:25.142Z,13.58
2022-09-30T06:07:52.916Z,13.47
2022-09-30T06:10:21.282Z,13.50
2022-09-30T06:12:49.033Z,13.38
2022-09-30T06:15:21.229Z,13.28
2022-09-30T06:17:53.174Z,13.23
2022-09-30T06:20:26.555Z,13.22
2022-09-30T06:22:54.649Z,13.39
2022-09-30T06:25:22.470Z,13.40
2022-09-30T06:27:50.355Z,13.50
2022-09-30T06:30:18.358Z,11.93
2022-09-30T06:32:52.670Z,13.76
2022-09-30T06:35:21.834Z,13.92
2022-09-30T06:37:51.651Z,13.94
2022-09-30T06:40:19.923Z,13.82
2022-09-30T06:42:48.539Z,13.69
2022-09-30T06:45:27.583Z,13.58
2022-09-30T06:48:04.235Z,13.71
2022-09-30T06:50:37.908Z,13.87
2022-09-30T06:53:06.856Z,14.10
2022-09-30T06:55:39.315Z,14.41
2022-09-30T06:58:08.723Z,14.59
2022-09-30T07:00:37.949Z,14.44
2022-09-30T07:03:10.349Z,14.71
2022-09-30T07:05:38.231Z,14.46
2022-09-30T07:08:06.047Z,14.01
2022-09-30T07:10:34.534Z,14.11
2022-09-30T07:13:02.980Z,12.96
2022-09-30T07:15:34.870Z,13.91
2022-09-30T07:18:02.682Z,14.43
2022-09-30T07:20:33.655Z,14.51
2022-09-30T07:23:01.700Z,14.18
2022-09-30T07:25:32.521Z,14.26
2022-09-30T07:28:01.319Z,13.79
2022-09-30T07:30:30.147Z,13.78
2022-09-30T07:32:58.158Z,14.13
2022-09-30T07:35:26.794Z,13.94
2022-09-30T07:37:59.982Z,13.99
2022-09-30T07:40:33.944Z,14.68
2022-09-30T07:43:01.894Z,14.88
2022-09-30T07:45:32.352Z,15.16
2022-09-30T07:48:00.554Z,15.34
2022-09-30T07:50:28.219Z,15.27
2022-09-30T07:52:57.257Z,14.94
2022-09-30T07:55:26.202Z,15.08
2022-09-30T07:57:55.345Z,15.41
2022-09-30T08:00:41.510Z,15.73
2022-09-30T08:03:10.042Z,15.76
2022-09-30T08:05:40.999Z,15.94
2022-09-30T08:08:12.415Z,15.23
2022-09-30T08:10:43.209Z,15.93
2022-09-30T08:13:13.855Z,16.16
2022-09-30T08:15:41.869Z,16.19
2022-09-30T08:18:09.897Z,16.27
2022-09-30T08:20:37.555Z,16.04
2022-09-30T08:23:07.142Z,15.82
2022-09-30T08:25:40.179Z,15.75
2022-09-30T08:28:08.142Z,15.93
2022-09-30T08:30:37.178Z,16.08
2022-09-30T08:33:07.311Z,16.24
2022-09-30T08:35:44.404Z,15.71
2022-09-30T08:38:12.998Z,15.42
2022-09-30T08:40:46.038Z,15.44
2022-09-30T08:43:24.847Z,15.43
2022-09-30T08:45:56.946Z,15.60
2022-09-30T08:48:32.273Z,15.78
2022-09-30T08:51:04.083Z,15.94
2022-09-30T08:53:32.439Z,16.15
2022-09-30T08:56:02.853Z,16.09
2022-09-30T08:58:32.241Z,15.96
2022-09-30T09:01:04.019Z,15.81
2022-09-30T09:03:37.528Z,15.92
2022-09-30T09:06:13.214Z,15.56
2022-09-30T09:08:52.053Z,15.62
2022-09-30T09:11:24.455Z,15.84
2022-09-30T09:13:54.243Z,15.88
2022-09-30T09:16:23.427Z,15.91
2022-09-30T09:18:59.861Z,15.24
2022-09-30T09:21:32.647Z,15.99
2022-09-30T09:24:01.607Z,15.58
2022-09-30T09:26:32.112Z,17.45
2022-09-30T09:29:04.956Z,17.71
2022-09-30T09:31:32.595Z,17.59
2022-09-30T09:34:03.914Z,16.94
2022-09-30T09:36:34.384Z,16.34
2022-09-30T09:39:11.802Z,16.40
2022-09-30T09:41:44.334Z,16.38
2022-09-30T09:44:14.186Z,16.33
2022-09-30T09:46:44.925Z,16.34
2022-09-30T09:49:21.074Z,16.05
2022-09-30T09:51:50.594Z,16.13
2022-09-30T09:54:19.021Z,16.32
2022-09-30T09:56:54.350Z,16.32
2022-09-30T09:59:22.090Z,16.53
2022-09-30T10:01:51.103Z,16.65
2022-09-30T10:04:22.029Z,16.84
2022-09-30T10:06:51.208Z,17.14
2022-09-30T10:09:29.403Z,17.15
2022-09-30T10:12:15.584Z,16.87
2022-09-30T10:15:00.259Z,16.41
2022-09-30T10:17:29.471Z,16.50
2022-09-30T10:19:59.355Z,16.54
2022-09-30T10:22:30.514Z,16.69
2022-09-30T10:25:20.875Z,16.52
2022-09-30T10:27:50.317Z,16.12
2022-09-30T10:30:32.493Z,16.30
2022-09-30T10:33:03.947Z,16.81
2022-09-30T10:35:38.333Z,16.56
2022-09-30T10:38:06.605Z,16.21
2022-09-30T10:40:35.141Z,16.17
2022-09-30T10:43:05.735Z,16.27
2022-09-30T10:45:37.126Z,16.87
2022-09-30T10:48:06.953Z,17.10
2022-09-30T10:50:34.855Z,16.80
2022-09-30T10:53:03.226Z,16.53
2022-09-30T10:55:37.383Z,16.79
2022-09-30T10:58:21.306Z,16.91
2022-09-30T11:00:51.317Z,17.39
2022-09-30T11:03:20.101Z,17.23
2022-09-30T11:05:50.776Z,17.48
2022-09-30T11:08:19.952Z,18.21
2022-09-30T11:10:48.668Z,18.24
2022-09-30T11:13:18.695Z,17.79
2022-09-30T11:15:49.260Z,18.03
2022-09-30T11:18:25.378Z,18.21
2022-09-30T11:20:58.835Z,18.41
2022-09-30T11:23:29.306Z,18.45
2022-09-30T11:25:58.724Z,18.01
2022-09-30T11:28:30.989Z,17.15
2022-09-30T11:31:06.183Z,18.43
2022-09-30T11:33:40.436Z,18.31
2022-09-30T11:36:10.010Z,18.07
2022-09-30T11:38:59.320Z,18.02
2022-09-30T11:41:28.761Z,17.75
2022-09-30T11:43:58.829Z,17.73
2022-09-30T11:46:32.693Z,17.92
2022-09-30T11:49:08.483Z,18.45
2022-09-30T11:51:39.301Z,18.02
2022-09-30T11:54:13.700Z,18.04
2022-09-30T11:56:43.952Z,18.08
2022-09-30T11:59:13.706Z,18.23
2022-09-30T12:01:43.604Z,18.07
2022-09-30T12:04:17.284Z,17.99
2022-09-30T12:06:47.734Z,18.25
2022-09-30T12:09:18.061Z,18.36
2022-09-30T12:11:48.065Z,18.49
2022-09-30T12:14:23.463Z,18.81
2022-09-30T12:16:53.381Z,18.44
2022-09-30T12:19:25.658Z,18.31
2022-09-30T12:21:56.211Z,18.30
2022-09-30T12:24:25.803Z,18.52
2022-09-30T12:26:58.204Z,18.47
2022-09-30T12:29:43.623Z,18.21
2022-09-30T12:32:16.438Z,18.37
2022-09-30T12:34:49.572Z,18.39
2022-09-30T12:37:23.973Z,18.58
2022-09-30T12:39:55.578Z,19.06
2022-09-30T12:42:33.718Z,18.69
2022-09-30T12:45:11.356Z,18.93
2022-09-30T12:47:39.446Z,19.20
2022-09-30T12:50:09.065Z,19.17
2022-09-30T12:52:39.822Z,19.86
2022-09-30T12:55:10.550Z,19.58
2022-09-30T12:57:42.492Z,19.18
2022-09-30T13:00:18.979Z,19.26
2022-09-30T13:02:47.732Z,19.15
2022-09-30T13:05:34.494Z,19.05
2022-09-30T13:08:25.453Z,18.93
2022-09-30T13:10:57.714Z,18.72
2022-09-30T13:13:25.915Z,18.80
2022-09-30T13:15:56.413Z,18.96
2022-09-30T13:18:46.470Z,19.11
2022-09-30T13:21:21.466Z,19.06
2022-09-30T13:23:54.185Z,18.74
2022-09-30T13:26:37.089Z,18.93
2022-09-30T13:29:23.179Z,18.78
2022-09-30T13:32:06.038Z,18.61
2022-09-30T13:34:35.538Z,18.62
2022-09-30T13:37:04.152Z,18.88
2022-09-30T13:39:45.219Z,18.76
2022-09-30T13:42:24.597Z,18.81
2022-09-30T13:44:57.740Z,19.15
2022-09-30T13:47:27.653Z,18.79
2022-09-30T13:49:57.583Z,18.83
2022-09-30T13:52:28.331Z,19.33
2022-09-30T13:55:01.109Z,19.48
2022-09-30T13:57:29.981Z,19.53
2022-09-30T14:00:05.013Z,19.46
2022-09-30T14:02:50.828Z,19.52
2022-09-30T14:05:36.349Z,18.97
2022-09-30T14:08:14.194Z,18.54
2022-09-30T14:10:48.987Z,18.19
2022-09-30T14:13:20.724Z,18.48
2022-09-30T14:16:08.300Z,18.80
2022-09-30T14:18:44.150Z,18.63
2022-09-30T14:21:29.605Z,18.36
2022-09-30T14:23:57.773Z,18.38
2022-09-30T14:26:32.327Z,18.33
2022-09-30T14:29:03.195Z,18.57
2022-09-30T14:31:32.322Z,18.51
2022-09-30T14:33:59.972Z,18.56
2022-09-30T14:36:27.590Z,18.78
2022-09-30T14:38:58.361Z,18.95
2022-09-30T14:41:25.962Z,18.87
2022-09-30T14:43:56.541Z,18.66
2022-09-30T14:46:26.791Z,18.90
2022-09-30T14:48:54.536Z,18.89
2022-09-30T14:51:23.897Z,18.81
2022-09-30T14:53:55.083Z,18.87
2022-09-30T14:56:25.845Z,19.14
2022-09-30T14:58:53.749Z,19.26
2022-09-30T15:01:23.645Z,19.45
2022-09-30T15:03:55.681Z,19.49
2022-09-30T15:06:24.297Z,19.90
2022-09-30T15:08:51.987Z,20.31
2022-09-30T15:11:20.303Z,20.47
2022-09-30T15:13:49.247Z,18.74
2022-09-30T15:16:32.367Z,19.90
2022-09-30T15:19:02.531Z,20.02
2022-09-30T15:21:31.905Z,20.10
2022-09-30T15:24:00.753Z,19.93
2022-09-30T15:26:28.609Z,20.32
2022-09-30T15:28:56.323Z,20.54
2022-09-30T15:31:25.431Z,20.72
2022-09-30T15:34:20.394Z,20.91
2022-09-30T15:36:57.155Z,20.74
2022-09-30T15:39:25.206Z,20.59
2022-09-30T15:41:53.022Z,20.16
2022-09-30T15:44:21.097Z,20.36
2022-09-30T15:47:04.027Z,20.57
2022-09-30T15:49:35.089Z,20.14
2022-09-30T15:52:24.979Z,19.97
2022-09-30T15:54:52.592Z,19.66
2022-09-30T15:57:43.498Z,19.63
2022-09-30T16:00:33.032Z,19.53
2022-09-30T16:03:07.192Z,19.59
2022-09-30T16:05:36.643Z,19.50
2022-09-30T16:08:08.982Z,19.75
2022-09-30T16:10:37.597Z,19.46
2022-09-30T16:13:06.953Z,19.35
2022-09-30T16:15:38.602Z,19.01
2022-09-30T16:18:06.285Z,18.80
2022-09-30T16:20:34.182Z,18.72
2022-09-30T16:23:05.801Z,18.66
2022-09-30T16:25:34.025Z,18.44
2022-09-30T16:28:02.862Z,18.28
2022-09-30T16:30:32.134Z,18.19
2022-09-30T16:33:00.176Z,18.17
2022-09-30T16:35:28.644Z,18.14
2022-09-30T16:37:59.732Z,18.00
2022-09-30T16:40:29.826Z,18.28
2022-09-30T16:42:58.751Z,18.31
2022-09-30T16:45:26.914Z,18.29
2022-09-30T16:47:55.868Z,17.89
2022-09-30T16:50:25.659Z,18.03
2022-09-30T16:52:55.581Z,17.72
2022-09-30T16:55:23.209Z,17.77
2022-09-30T16:57:52.187Z,17.40
2022-09-30T17:00:24.758Z,17.64
2022-09-30T17:02:52.946Z,17.29
2022-09-30T17:05:21.458Z,17.14
2022-09-30T17:07:56.882Z,16.72
2022-09-30T17:10:25.390Z,17.12
2022-09-30T17:12:54.401Z,17.48
2022-09-30T17:15:25.109Z,17.45
2022-09-30T17:17:54.645Z,17.54
2022-09-30T17:20:22.513Z,17.39
2022-09-30T17:22:50.570Z,17.26
2022-09-30T17:25:18.293Z,16.67
2022-09-30T17:27:50.064Z,17.10
2022-09-30T17:30:20.009Z,16.86
2022-09-30T17:32:47.682Z,16.73
2022-09-30T17:35:19.702Z,16.59
2022-09-30T17:37:47.994Z,16.61
2022-09-30T17:40:33.126Z,16.22
2022-09-30T17:43:10.960Z,16.66
2022-09-30T17:45:42.040Z,16.37
2022-09-30T17:48:10.081Z,16.78
2022-09-30T17:50:37.819Z,16.63
2022-09-30T17:53:06.297Z,16.18
2022-09-30T17:55:38.021Z,15.40
2022-09-30T17:58:05.678Z,15.42
2022-09-30T18:00:33.608Z,15.94
2022-09-30T18:03:03.265Z,15.78
2022-09-30T18:05:30.864Z,15.60
2022-09-30T18:08:05.654Z,15.57
2022-09-30T18:10:33.321Z,15.43
2022-09-30T18:13:00.849Z,15.23
2022-09-30T18:15:31.842Z,15.23
2022-09-30T18:17:59.427Z,15.65
2022-09-30T18:20:29.559Z,15.13
2022-09-30T18:22:57.119Z,14.95
2022-09-30T18:25:27.249Z,14.80
2022-09-30T18:27:57.458Z,14.72
2022-09-30T18:30:25.407Z,14.62
2022-09-30T18:32:56.277Z,14.82
2022-09-30T18:35:24.603Z,14.68
2022-09-30T18:37:55.095Z,14.76
2022-09-30T18:40:23.484Z,15.17
2022-09-30T18:42:55.546Z,14.97
2022-09-30T18:45:25.960Z,14.83
2022-09-30T18:47:55.462Z,14.58
2022-09-30T18:50:24.608Z,14.74
2022-09-30T18:52:54.324Z,14.50
2022-09-30T18:55:23.651Z,14.59
2022-09-30T18:57:54.465Z,14.54
2022-09-30T19:00:22.872Z,14.66
2022-09-30T19:02:52.426Z,14.90
2022-09-30T19:05:21.045Z,14.75
2022-09-30T19:07:49.232Z,14.68
2022-09-30T19:10:18.682Z,14.36
2022-09-30T19:12:46.357Z,14.80
2022-09-30T19:15:16.019Z,14.87
2022-09-30T19:17:44.073Z,15.17
2022-09-30T19:20:12.162Z,15.02
2022-09-30T19:22:39.687Z,14.62
2022-09-30T19:25:08.306Z,14.36
2022-09-30T19:27:38.763Z,14.23
2022-09-30T19:30:08.635Z,14.19
2022-09-30T19:32:36.370Z,14.12
2022-09-30T19:35:06.716Z,14.27
2022-09-30T19:37:40.806Z,14.33
2022-09-30T19:40:21.001Z,14.08
2022-09-30T19:42:53.170Z,13.82
2022-09-30T19:45:26.048Z,13.94
2022-09-30T19:47:54.014Z,14.09
2022-09-30T19:50:24.885Z,13.62
2022-09-30T19:52:57.381Z,13.72
2022-09-30T19:55:28.643Z,13.27
2022-09-30T19:57:58.501Z,13.26
2022-09-30T20:00:35.182Z,13.51
2022-09-30T20:03:02.851Z,14.23
2022-09-30T20:05:30.566Z,13.59
2022-09-30T20:07:58.582Z,13.94
2022-09-30T20:10:28.805Z,13.55
2022-09-30T20:12:56.416Z,13.24
2022-09-30T20:15:50.246Z,13.11
2022-09-30T20:18:17.944Z,12.71
2022-09-30T20:20:49.871Z,13.21
2022-09-30T20:23:21.181Z,13.58
2022-09-30T20:25:49.097Z,13.38
2022-09-30T20:28:18.966Z,13.19
2022-09-30T20:30:48.789Z,12.50
2022-09-30T20:33:20.238Z,12.66
2022-09-30T20:35:48.776Z,12.84
2022-09-30T20:38:19.804Z,13.07
2022-09-30T20:40:47.364Z,12.75
2022-09-30T20:43:22.090Z,12.75
2022-09-30T20:45:55.466Z,12.35
2022-09-30T20:48:23.187Z,12.21
2022-09-30T20:50:50.945Z,12.81
2022-09-30T20:53:18.503Z,12.56
2022-09-30T20:55:46.192Z,12.32
2022-09-30T20:58:14.332Z,13.00
2022-09-30T21:00:42.325Z,12.81
2022-09-30T21:03:12.764Z,13.38
2022-09-30T21:05:43.093Z,13.15
2022-09-30T21:08:14.637Z,13.33
2022-09-30T21:10:45.111Z,13.08
2022-09-30T21:13:17.478Z,12.93
2022-09-30T21:15:45.381Z,12.77
2022-09-30T21:18:14.931Z,12.86
2022-09-30T21:20:42.730Z,12.99
2022-09-30T21:23:10.458Z,12.48
2022-09-30T21:25:43.321Z,12.44
2022-09-30T21:28:13.675Z,12.59
2022-09-30T21:30:42.246Z,12.99
2022-09-30T21:33:10.033Z,12.70
2022-09-30T21:35:39.802Z,12.47
2022-09-30T21:38:16.407Z,12.87
2022-09-30T21:40:46.102Z,12.83
2022-09-30T21:43:13.678Z,12.97
2022-09-30T21:45:42.471Z,13.28
2022-09-30T21:48:14.397Z,13.13
2022-09-30T21:50:43.869Z,13.29
2022-09-30T21:53:11.595Z,13.15
2022-09-30T21:55:40.050Z,12.72
2022-09-30T21:58:10.681Z,12.80
2022-09-30T22:00:38.588Z,12.98
2022-09-30T22:03:08.735Z,12.96
2022-09-30T22:05:37.186Z,12.87
2022-09-30T22:08:07.839Z,12.82
2022-09-30T22:10:35.400Z,13.03
2022-09-30T22:13:07.112Z,12.48
2022-09-30T22:15:35.021Z,12.67
2022-09-30T22:18:02.951Z,12.85
2022-09-30T22:20:30.860Z,12.47
2022-09-30T22:22:59.621Z,12.03
2022-09-30T22:25:31.757Z,12.21
2022-09-30T22:27:59.530Z,12.20
2022-09-30T22:30:28.036Z,12.17
2022-09-30T22:33:12.154Z,12.19
2022-09-30T22:36:11.674Z,12.18
2022-09-30T22:38:39.201Z,12.12
2022-09-30T22:41:08.684Z,11.95
2022-09-30T22:43:36.989Z,11.73
2022-09-30T22:46:05.919Z,11.87
2022-09-30T22:48:33.950Z,12.05
2022-09-30T22:51:01.925Z,11.95
2022-09-30T22:53:31.251Z,11.96
2022-09-30T22:55:59.618Z,12.21
2022-09-30T22:58:30.830Z,12.01
2022-09-30T23:00:59.965Z,11.55
2022-09-30T23:03:27.697Z,11.67
2022-09-30T23:06:02.720Z,12.08
2022-09-30T23:08:31.325Z,11.87
2022-09-30T23:11:00.385Z,11.47
2022-09-30T23:13:35.303Z,11.77
2022-09-30T23:16:03.956Z,11.75
2022-09-30T23:18:37.029Z,11.49
2022-09-30T23:21:06.493Z,11.41
2022-09-30T23:23:36.748Z,11.50
2022-09-30T23:26:05.706Z,11.52
2022-09-30T23:28:34.988Z,11.35
2022-09-30T23:31:03.313Z,11.41
2022-09-30T23:33:36.816Z,11.84
2022-09-30T23:36:04.963Z,11.60
2022-09-30T23:38:32.917Z,11.62
2022-09-30T23:41:01.128Z,11.67
2022-09-30T23:43:30.425Z,11.62
2022-09-30T23:46:10.997Z,11.66
2022-09-30T23:48:38.763Z,11.62
2022-09-30T23:51:08.714Z,11.96
2022-09-30T23:53:41.937Z,11.89
2022-09-30T23:56:10.797Z,11.72
2022-09-30T23:58:44.438Z,11.73
